DW8618 Nerja ES current weather conditions

sailwx.info

Wind from 350 at 2 knots gusting 5

Air temperature 22.2° C
Dewpoint 19.8° C

Last reported at 2014-Oct-01 21:45 UTC.
Time now 2014-Oct-01 22:26 UTC

Location: N 36°46' W 003°52'.
View on Google Maps.

See reports from other nearby stations

  
Tides and Currents Weather Stations Pressure Air Temp Water Temp Dewpoint Dewpoint Depression Visibility Wind Speed Wind Dir Waves Ship Positions
date/time (UTC)wind fromknots sea level pressurealtimeterstation pressurevisibilityair tempwater tempwave heightnotes
2014-Oct-01 21:45 350 2 gusting 5 22.2
2014-Oct-01 21:30 325 3 gusting 6 22.2
2014-Oct-01 21:15 335 4 gusting 6 22.2
2014-Oct-01 21:01 333 4 gusting 5 22.2
2014-Oct-01 20:45 330 2 gusting 5 22.2
2014-Oct-01 20:30 333 4 gusting 5 22.2
2014-Oct-01 20:16 336 4 gusting 6 22.2
2014-Oct-01 20:01 355 2 gusting 5 22.8
2014-Oct-01 19:46 348 22.8
2014-Oct-01 19:31 348 22.8
2014-Oct-01 19:15 345 23.3
2014-Oct-01 19:01 355 23.3
2014-Oct-01 18:45 317 23.3
2014-Oct-01 18:30 322 23.3
2014-Oct-01 18:15 316 2 gusting 4 23.9
2014-Oct-01 18:01 121 23.9
2014-Oct-01 17:45 096 23.9
2014-Oct-01 17:30 117 23.9
2014-Oct-01 17:16 155 24.4
2014-Oct-01 17:01 126 2 gusting 6 24.4
2014-Oct-01 16:45 136 25.0
2014-Oct-01 16:31 117 25.0
2014-Oct-01 16:16 148 24.4
2014-Oct-01 16:01 115 1 gusting 10 24.4
2014-Oct-01 15:45 171 2 gusting 9 25.0
2014-Oct-01 15:30 111 5 gusting 10 23.9
2014-Oct-01 15:15 148 6 gusting 11 24.4
2014-Oct-01 15:01 108 5 gusting 11 24.4
2014-Oct-01 14:45 121 6 gusting 15 24.4
2014-Oct-01 14:31 131 5 gusting 13 25.0
2014-Oct-01 14:15 138 6 gusting 13 25.0
2014-Oct-01 14:01 128 7 gusting 13 25.6
2014-Oct-01 13:45 111 6 gusting 12 26.1
2014-Oct-01 13:30 127 3 gusting 13 26.7
2014-Oct-01 13:15 132 2 gusting 12 26.1
2014-Oct-01 13:01 137 8 gusting 15 25.6
2014-Oct-01 12:46 158 4 gusting 16 25.0
2014-Oct-01 12:30 148 2 gusting 14 25.0
2014-Oct-01 12:15 157 5 gusting 13 23.9
2014-Oct-01 12:01 158 4 gusting 10 24.4
2014-Oct-01 11:45 180 2 gusting 12 24.4
2014-Oct-01 11:30 180 6 gusting 11 25.0
2014-Oct-01 11:16 151 1 gusting 6 25.0
2014-Oct-01 11:01 171 1 gusting 6 25.0
2014-Oct-01 10:46 153 0 gusting 6 25.6
2014-Oct-01 10:30 151 26.1
2014-Oct-01 10:15 116 4 gusting 8 26.1
2014-Oct-01 10:01 099 1 gusting 6 25.0
2014-Oct-01 09:45 106 2 gusting 7 23.9
2014-Oct-01 09:30 136 3 gusting 8 23.9
2014-Oct-01 09:15 146 2 gusting 6 23.9
2014-Oct-01 09:01 192 0 gusting 6 23.3
2014-Oct-01 08:46 030 23.3
2014-Oct-01 08:30 032 22.8
2014-Oct-01 08:15 015 22.2
2014-Oct-01 08:01 339 22.2
2014-Oct-01 07:45 331 22.2
2014-Oct-01 07:30 334 22.2
2014-Oct-01 07:15 323 22.2
2014-Oct-01 07:01 311 3 gusting 5 22.2
2014-Oct-01 06:45 311 0 gusting 5 22.2
2014-Oct-01 06:30 032 22.2
2014-Oct-01 06:15 005 22.2
2014-Oct-01 06:01 336 22.2
2014-Oct-01 05:46 024 3 gusting 5 22.2
2014-Oct-01 05:31 301 22.8
2014-Oct-01 05:15 105 0 gusting 4 22.8
2014-Oct-01 05:01 076 2 gusting 8 22.8
2014-Oct-01 04:45 116 0 gusting 8 22.2
2014-Oct-01 04:31 094 0 gusting 8 21.7
2014-Oct-01 04:15 110 21.7
2014-Oct-01 04:01 132 1 gusting 9 21.7
2014-Oct-01 03:45 084 6 gusting 13 21.7
2014-Oct-01 03:31 108 0 gusting 9 22.2
2014-Oct-01 03:16 101 22.2
2014-Oct-01 03:01 330 5 gusting 8 22.2
2014-Oct-01 02:45 071 22.2
2014-Oct-01 02:31 129 0 gusting 6 22.2
2014-Oct-01 02:16 171 6 gusting 11 22.2
2014-Oct-01 02:01 154 3 gusting 7 21.7
2014-Oct-01 01:45 173 3 gusting 5 21.7
2014-Oct-01 01:30 038 21.7
2014-Oct-01 01:15 005 21.7
2014-Oct-01 01:01 313 21.7
2014-Oct-01 00:45 222 3 gusting 10 21.7
2014-Oct-01 00:30 222 0 gusting 8 21.7
2014-Oct-01 00:15 203 4 gusting 13 22.2
2014-Oct-01 00:01 134 1 gusting 7 21.7
2014-Sep-30 23:45 233 21.7
2014-Sep-30 23:30 233 21.7
2014-Sep-30 23:16 230 0 gusting 4 21.7
2014-Sep-30 23:01 230 21.7
2014-Sep-30 22:46 230 21.7
2014-Sep-30 22:31 230 21.7
2014-Sep-30 22:15 230 21.7
2014-Sep-30 22:01 230 21.7
2014-Sep-30 21:45 230 21.7
2014-Sep-30 21:31 230 3 gusting 5 21.7
2014-Sep-30 21:15 220 22.2
2014-Sep-30 21:01 220 22.2
2014-Sep-30 20:46 220 22.2
2014-Sep-30 20:30 220 22.2
2014-Sep-30 20:15 220 22.2
2014-Sep-30 20:01 220 1 gusting 5 22.2
2014-Sep-30 19:45 168 22.2
2014-Sep-30 19:31 168 22.2
2014-Sep-30 19:16 168 22.8
2014-Sep-30 19:01 168 22.8
2014-Sep-30 18:46 168 22.8
2014-Sep-30 18:30 168 22.8
2014-Sep-30 18:15 168 23.3
2014-Sep-30 18:01 168 23.3
2014-Sep-30 17:45 168 23.3
2014-Sep-30 17:30 168 23.3
2014-Sep-30 17:15 168 2 gusting 5 23.9
2014-Sep-30 17:01 168 23.9
2014-Sep-30 16:45 168 23.9
2014-Sep-30 16:30 168 23.9
2014-Sep-30 16:16 168 0 gusting 6 23.9
2014-Sep-30 16:01 168 0 gusting 4 23.9
2014-Sep-30 15:45 168 23.3
2014-Sep-30 15:30 169 2 gusting 5 23.9
2014-Sep-30 15:15 172 2 gusting 5 23.9
2014-Sep-30 15:01 172 0 gusting 6 23.9
2014-Sep-30 14:45 158 2 gusting 6 23.9
2014-Sep-30 14:31 156 2 gusting 6 23.9
2014-Sep-30 14:15 163 1 gusting 6 23.9
2014-Sep-30 14:01 165 24.4
2014-Sep-30 13:45 159 2 gusting 6 24.4
2014-Sep-30 13:30 156 2 gusting 6 24.4
2014-Sep-30 13:16 177 0 gusting 5 25.0
2014-Sep-30 13:01 177 0 gusting 6 23.3
2014-Sep-30 12:45 177 2 gusting 6 23.9
2014-Sep-30 12:31 181 4 gusting 9 24.4
2014-Sep-30 12:15 171 2 gusting 9 24.4
2014-Sep-30 12:01 155 4 gusting 6 24.4
2014-Sep-30 11:45 162 3 gusting 6 24.4
2014-Sep-30 11:30 175 3 gusting 8 24.4
2014-Sep-30 11:16 169 3 gusting 6 23.9
2014-Sep-30 11:01 170 3 gusting 7 23.9
2014-Sep-30 10:46 169 4 gusting 6 23.9
2014-Sep-30 10:30 167 1 gusting 6 23.9
2014-Sep-30 10:15 167 23.3
2014-Sep-30 10:01 167 0 gusting 3 22.8
2014-Sep-30 09:45 167 1 gusting 3 23.9
2014-Sep-30 09:30 167 24.4
2014-Sep-30 09:16 167 23.9
2014-Sep-30 09:01 167 2 gusting 6 22.8
2014-Sep-30 08:45 167 23.3
2014-Sep-30 08:31 167 23.3
2014-Sep-30 08:15 167 23.3
2014-Sep-30 08:01 167 22.8
2014-Sep-30 07:46 167 21.7
2014-Sep-30 07:31 167 21.7
2014-Sep-30 07:15 167 20.6
2014-Sep-30 07:01 167 20.6
2014-Sep-30 06:45 167 20.0
2014-Sep-30 06:31 167 20.0
2014-Sep-30 06:15 167 20.0
2014-Sep-30 06:01 167 20.0
2014-Sep-30 05:45 167 19.4
2014-Sep-30 04:45 167 18.9
2014-Sep-30 04:31 167 18.9
2014-Sep-30 04:16 167 2 gusting 3 18.9
2014-Sep-30 04:01 167 19.4
2014-Sep-30 03:46 167 19.4
2014-Sep-30 03:30 167 18.9
2014-Sep-30 03:16 167 1 gusting 4 18.9
2014-Sep-30 03:01 167 18.9
2014-Sep-30 02:45 167 19.4
2014-Sep-30 02:30 167 18.9
2014-Sep-30 02:15 167 18.9
2014-Sep-30 02:01 167 18.9
2014-Sep-30 01:45 167 19.4
2014-Sep-30 01:30 167 19.4
2014-Sep-30 01:16 167 19.4
2014-Sep-30 01:01 167 19.4
2014-Sep-30 00:46 167 19.4
2014-Sep-30 00:31 167 19.4
2014-Sep-30 00:15 167 19.4
2014-Sep-30 00:01 167 19.4
2014-Sep-29 23:45 167 19.4
2014-Sep-29 23:31 167 20.0
2014-Sep-29 23:15 167 19.4
2014-Sep-29 23:01 167 0 gusting 5 20.0
2014-Sep-29 22:45 164 3 gusting 4 20.0
2014-Sep-29 22:30 164 20.0
2014-Sep-29 22:15 164 20.6
2014-Sep-29 22:01 164 20.6